Time,TemperatureF,DewpointF,PressureIn,WindDirection,WindDirectionDegrees,WindSpeedMPH,WindSpeedGustMPH,Humidity,HourlyPrecipIn,Conditions,Clouds,dailyrainin,SoftwareType,DateUTC
2013-05-09 00:02:00,59.0,59.0,29.88,NNE,20,7.0,10.0,99,0.02,,,0.05,,2013-05-09 05:02:00,
2013-05-09 00:12:00,59.0,59.0,29.88,NNE,20,7.0,10.0,99,0.02,,,0.05,,2013-05-09 05:12:00,
2013-05-09 00:22:00,58.0,58.0,29.90,North,357,6.0,7.0,99,0.00,,,0.24,,2013-05-09 05:22:00,
2013-05-09 00:32:00,58.0,58.0,29.89,East,96,5.0,7.0,99,0.02,,,0.31,,2013-05-09 05:32:00,
2013-05-09 00:42:00,57.0,57.0,29.89,East,97,0.0,0.0,99,0.21,,,0.49,,2013-05-09 05:42:00,
2013-05-09 00:52:00,57.0,57.0,29.89,East,97,0.0,0.0,99,0.21,,,0.49,,2013-05-09 05:52:00,
2013-05-09 01:02:00,57.0,57.0,29.88,East,97,0.0,0.0,99,0.32,,,0.60,,2013-05-09 06:02:00,
2013-05-09 01:11:00,57.0,57.0,29.88,East,97,0.0,0.0,99,0.32,,,0.60,,2013-05-09 06:11:00,
2013-05-09 01:21:00,57.0,55.0,29.88,East,97,0.0,0.0,94,0.54,,,0.77,,2013-05-09 06:21:00,
2013-05-09 01:32:00,57.0,55.0,29.89,East,97,0.0,0.0,94,0.51,,,0.81,,2013-05-09 06:32:00,
2013-05-09 01:42:00,58.0,56.0,29.88,East,97,0.0,0.0,94,0.44,,,0.93,,2013-05-09 06:42:00,
2013-05-09 01:52:00,58.0,56.0,29.88,East,97,0.0,0.0,94,0.44,,,0.93,,2013-05-09 06:52:00,
2013-05-09 02:01:00,58.0,58.0,29.89,East,97,0.0,0.0,99,0.33,,,0.93,,2013-05-09 07:01:00,
2013-05-09 02:12:00,58.0,56.0,29.88,East,97,0.0,0.0,94,0.27,,,1.04,,2013-05-09 07:12:00,
2013-05-09 02:21:00,58.0,56.0,29.88,East,97,0.0,0.0,94,0.27,,,1.04,,2013-05-09 07:21:00,
2013-05-09 02:32:00,58.0,58.0,29.88,East,97,0.0,0.0,99,0.23,,,1.04,,2013-05-09 07:32:00,
2013-05-09 02:42:00,57.0,57.0,29.88,East,97,0.0,0.0,99,0.11,,,1.04,,2013-05-09 07:42:00,
2013-05-09 02:52:00,57.0,57.0,29.88,East,97,0.0,0.0,99,0.11,,,1.04,,2013-05-09 07:52:00,
2013-05-09 03:02:00,57.0,57.0,29.88,East,97,0.0,0.0,99,0.11,,,1.04,,2013-05-09 08:02:00,
2013-05-09 03:11:00,57.0,57.0,29.86,East,97,0.0,0.0,99,0.00,,,1.04,,2013-05-09 08:11:00,
2013-05-09 03:21:00,57.0,57.0,29.86,East,97,0.0,0.0,99,0.00,,,1.04,,2013-05-09 08:21:00,
2013-05-09 03:31:00,57.0,57.0,29.86,East,97,0.0,0.0,99,0.00,,,1.04,,2013-05-09 08:31:00,
2013-05-09 03:41:00,57.0,57.0,29.86,East,97,0.0,0.0,99,0.00,,,1.04,,2013-05-09 08:41:00,
2013-05-09 03:52:00,57.0,57.0,29.86,East,97,0.0,0.0,99,0.00,,,1.04,,2013-05-09 08:52:00,
2013-05-09 04:02:00,57.0,57.0,29.87,East,97,0.0,0.0,99,0.00,,,1.04,,2013-05-09 09:02:00,
2013-05-09 04:11:00,57.0,57.0,29.87,East,97,0.0,0.0,99,0.00,,,1.04,,2013-05-09 09:11:00,
2013-05-09 04:21:00,57.0,57.0,29.88,East,97,0.0,0.0,99,0.00,,,1.04,,2013-05-09 09:21:00,
2013-05-09 04:32:00,57.0,57.0,29.88,East,97,0.0,0.0,99,0.00,,,1.04,,2013-05-09 09:32:00,
2013-05-09 04:42:00,57.0,57.0,29.87,East,97,0.0,0.0,99,0.00,,,1.04,,2013-05-09 09:42:00,
2013-05-09 04:53:00,57.0,57.0,29.87,East,97,0.0,0.0,99,0.00,,,1.04,,2013-05-09 09:53:00,
2013-05-09 05:02:00,57.0,57.0,29.86,East,97,0.0,0.0,99,0.00,,,1.04,,2013-05-09 10:02:00,
2013-05-09 05:12:00,57.0,57.0,29.87,East,97,0.0,0.0,99,0.00,,,1.04,,2013-05-09 10:12:00,
2013-05-09 05:22:00,57.0,57.0,29.87,East,97,0.0,0.0,99,0.00,,,1.04,,2013-05-09 10:22:00,
2013-05-09 05:33:00,57.0,57.0,29.87,East,97,0.0,0.0,99,0.00,,,1.04,,2013-05-09 10:33:00,
2013-05-09 05:42:00,56.0,56.0,29.87,North,0,0.0,0.0,99,0.00,,,1.04,,2013-05-09 10:42:00,
2013-05-09 05:52:00,56.0,56.0,29.87,North,0,0.0,0.0,99,0.00,,,1.04,,2013-05-09 10:52:00,
2013-05-09 06:02:00,56.0,56.0,29.87,North,0,0.0,0.0,99,0.00,,,1.04,,2013-05-09 11:02:00,
2013-05-09 06:12:00,56.0,56.0,29.87,North,0,0.0,0.0,99,0.00,,,1.04,,2013-05-09 11:12:00,
2013-05-09 06:22:00,56.0,56.0,29.87,North,0,0.0,0.0,99,0.00,,,1.04,,2013-05-09 11:22:00,
2013-05-09 06:32:00,56.0,56.0,29.88,North,0,0.0,0.0,99,0.00,,,1.04,,2013-05-09 11:32:00,
2013-05-09 06:41:00,56.0,56.0,29.88,North,0,0.0,0.0,99,0.00,,,1.04,,2013-05-09 11:41:00,
2013-05-09 06:52:00,56.0,56.0,29.88,North,0,0.0,0.0,99,0.00,,,1.04,,2013-05-09 11:52:00,
2013-05-09 07:01:00,56.0,56.0,29.88,North,0,0.0,0.0,99,0.00,,,1.04,,2013-05-09 12:01:00,
2013-05-09 07:11:00,55.0,55.0,29.88,North,7,7.0,10.0,99,0.00,,,1.04,,2013-05-09 12:11:00,
2013-05-09 07:22:00,55.0,55.0,29.88,North,7,7.0,10.0,99,0.00,,,1.04,,2013-05-09 12:22:00,
2013-05-09 07:31:00,55.0,55.0,29.88,North,2,7.0,9.0,99,0.00,,,1.04,,2013-05-09 12:31:00,
2013-05-09 07:42:00,55.0,55.0,29.89,NNE,15,10.0,15.0,99,0.00,,,1.04,,2013-05-09 12:42:00,
2013-05-09 07:52:00,55.0,55.0,29.89,NNE,15,10.0,15.0,99,0.00,,,1.04,,2013-05-09 12:52:00,
2013-05-09 08:01:00,55.0,55.0,29.89,NNE,15,10.0,15.0,99,0.00,,,1.04,,2013-05-09 13:01:00,
2013-05-09 08:12:00,55.0,55.0,29.89,NNE,15,10.0,15.0,99,0.00,,,1.04,,2013-05-09 13:12:00,
2013-05-09 08:21:00,55.0,55.0,29.89,NNE,24,8.0,10.0,99,0.00,,,1.03,,2013-05-09 13:21:00,
2013-05-09 08:32:00,55.0,55.0,29.89,NNE,24,11.0,11.0,99,0.00,,,1.03,,2013-05-09 13:32:00,
2013-05-09 08:42:00,56.0,56.0,29.90,North,10,9.0,12.0,99,0.00,,,1.03,,2013-05-09 13:42:00,
2013-05-09 08:52:00,56.0,56.0,29.90,North,10,9.0,12.0,99,0.00,,,1.03,,2013-05-09 13:52:00,
2013-05-09 09:01:00,56.0,56.0,29.90,North,4,8.0,11.0,99,0.00,,,1.03,,2013-05-09 14:01:00,
2013-05-09 09:11:00,56.0,56.0,29.91,North,4,8.0,10.0,99,0.00,,,1.03,,2013-05-09 14:11:00,
2013-05-09 09:21:00,56.0,56.0,29.91,North,4,8.0,10.0,99,0.00,,,1.03,,2013-05-09 14:21:00,
2013-05-09 09:32:00,56.0,56.0,29.91,NNE,14,6.0,8.0,99,0.00,,,1.03,,2013-05-09 14:32:00,
2013-05-09 09:41:00,56.0,55.0,29.92,North,358,8.0,9.0,97,0.00,,,1.03,,2013-05-09 14:41:00,
2013-05-09 09:52:00,56.0,55.0,29.92,North,358,8.0,9.0,97,0.00,,,1.03,,2013-05-09 14:52:00,
2013-05-09 10:01:00,56.0,55.0,29.92,NNE,20,4.0,5.0,95,0.00,,,1.03,,2013-05-09 15:01:00,
2013-05-09 10:11:00,57.0,57.0,29.92,NNE,14,6.0,8.0,99,0.00,,,1.03,,2013-05-09 15:11:00,
2013-05-09 10:22:00,57.0,57.0,29.92,NNE,14,6.0,8.0,99,0.00,,,1.03,,2013-05-09 15:22:00,
2013-05-09 10:33:00,57.0,57.0,29.93,NE,35,5.0,8.0,99,0.00,,,1.03,,2013-05-09 15:33:00,
2013-05-09 10:43:00,58.0,58.0,29.93,North,0,8.0,10.0,99,0.00,,,1.03,,2013-05-09 15:43:00,
2013-05-09 10:53:00,58.0,58.0,29.93,North,0,8.0,10.0,99,0.00,,,1.03,,2013-05-09 15:53:00,
2013-05-09 11:03:00,57.0,57.0,29.93,North,358,7.0,9.0,99,0.00,,,1.03,,2013-05-09 16:03:00,
2013-05-09 11:12:00,57.0,57.0,29.94,North,4,8.0,10.0,99,0.00,,,1.03,,2013-05-09 16:12:00,
2013-05-09 11:22:00,57.0,57.0,29.94,North,4,8.0,10.0,99,0.00,,,1.03,,2013-05-09 16:22:00,
2013-05-09 11:33:00,57.0,57.0,29.94,NNE,21,7.0,8.0,99,0.00,,,1.03,,2013-05-09 16:33:00,
2013-05-09 11:42:00,57.0,57.0,29.95,NNW,344,7.0,8.0,99,0.00,,,1.03,,2013-05-09 16:42:00,
2013-05-09 11:53:00,57.0,57.0,29.95,NNW,344,7.0,8.0,99,0.00,,,1.03,,2013-05-09 16:53:00,
2013-05-09 12:02:00,57.0,57.0,29.95,NNW,344,6.0,8.0,99,0.00,,,1.03,,2013-05-09 17:02:00,
2013-05-09 12:12:00,57.0,57.0,29.95,NNW,344,6.0,8.0,99,0.00,,,1.03,,2013-05-09 17:12:00,
2013-05-09 12:21:00,57.0,57.0,29.95,North,4,3.0,3.0,99,0.00,,,1.03,,2013-05-09 17:21:00,
2013-05-09 12:32:00,57.0,57.0,29.95,North,4,3.0,3.0,99,0.00,,,1.03,,2013-05-09 17:32:00,
2013-05-09 12:42:00,58.0,57.0,29.95,NNE,27,0.0,0.0,98,0.00,,,1.03,,2013-05-09 17:42:00,
2013-05-09 12:55:00,58.0,57.0,29.95,NNE,27,0.0,0.0,98,0.00,,,1.03,,2013-05-09 17:55:00,
2013-05-09 13:01:00,58.0,57.0,29.95,NNE,27,0.0,0.0,98,0.00,,,1.03,,2013-05-09 18:01:00,
2013-05-09 13:12:00,58.0,57.0,29.95,NNE,27,0.0,0.0,98,0.00,,,1.03,,2013-05-09 18:12:00,
2013-05-09 13:21:00,59.0,58.0,29.94,NNW,343,7.0,9.0,97,0.00,,,1.03,,2013-05-09 18:21:00,
2013-05-09 13:31:00,59.0,58.0,29.94,NNW,336,9.0,11.0,97,0.00,,,1.03,,2013-05-09 18:31:00,
2013-05-09 13:42:00,59.0,58.0,29.94,NNW,334,10.0,14.0,98,0.00,,,1.03,,2013-05-09 18:42:00,
2013-05-09 13:52:00,59.0,58.0,29.94,NNW,334,10.0,14.0,98,0.00,,,1.03,,2013-05-09 18:52:00,
2013-05-09 14:01:00,60.0,60.0,29.94,NNW,343,9.0,12.0,99,0.00,,,1.03,,2013-05-09 19:01:00,
2013-05-09 14:11:00,60.0,60.0,29.94,NNW,343,9.0,12.0,99,0.00,,,1.03,,2013-05-09 19:11:00,
2013-05-09 14:21:00,62.0,62.0,29.93,NNW,344,8.0,11.0,99,0.00,,,1.03,,2013-05-09 19:21:00,
2013-05-09 14:31:00,62.0,62.0,29.93,NNW,344,8.0,11.0,99,0.00,,,1.03,,2013-05-09 19:31:00,
2013-05-09 14:41:00,64.0,64.0,29.92,NNW,341,11.0,14.0,99,0.00,,,1.03,,2013-05-09 19:41:00,
2013-05-09 14:52:00,64.0,64.0,29.92,NNW,341,11.0,14.0,99,0.00,,,1.03,,2013-05-09 19:52:00,
2013-05-09 15:01:00,64.0,56.0,29.92,NW,317,8.0,11.0,76,0.00,,,1.03,,2013-05-09 20:01:00,
2013-05-09 15:11:00,64.0,56.0,29.92,NW,317,8.0,11.0,76,0.00,,,1.03,,2013-05-09 20:11:00,
2013-05-09 15:22:00,65.0,57.0,29.92,NNW,348,9.0,11.0,76,0.00,,,1.03,,2013-05-09 20:22:00,
2013-05-09 15:32:00,65.0,57.0,29.91,NW,321,8.0,11.0,76,0.00,,,1.03,,2013-05-09 20:32:00,
2013-05-09 15:42:00,65.0,57.0,29.91,NW,326,10.0,11.0,76,0.00,,,1.03,,2013-05-09 20:42:00,
2013-05-09 15:52:00,65.0,57.0,29.91,NW,326,10.0,11.0,76,0.00,,,1.03,,2013-05-09 20:52:00,
2013-05-09 16:01:00,65.0,57.0,29.91,NNW,328,10.0,16.0,76,0.00,,,1.03,,2013-05-09 21:01:00,
2013-05-09 16:11:00,66.0,58.0,29.91,NW,322,7.0,8.0,76,0.00,,,1.03,,2013-05-09 21:11:00,
2013-05-09 16:22:00,66.0,58.0,29.91,NW,322,7.0,8.0,76,0.00,,,1.03,,2013-05-09 21:22:00,
2013-05-09 16:32:00,66.0,58.0,29.90,NW,325,13.0,18.0,76,0.00,,,1.02,,2013-05-09 21:32:00,
2013-05-09 16:43:00,66.0,58.0,29.90,NW,324,11.0,16.0,76,0.00,,,1.02,,2013-05-09 21:43:00,
2013-05-09 16:53:00,66.0,58.0,29.90,NW,324,11.0,16.0,76,0.00,,,1.02,,2013-05-09 21:53:00,
2013-05-09 17:03:00,65.0,57.0,29.90,NW,318,13.0,20.0,76,0.00,,,1.02,,2013-05-09 22:03:00,
2013-05-09 17:12:00,62.0,54.0,29.92,North,3,9.0,21.0,76,0.00,,,1.02,,2013-05-09 22:12:00,
2013-05-09 17:22:00,62.0,54.0,29.92,North,3,9.0,21.0,76,0.00,,,1.02,,2013-05-09 22:22:00,
2013-05-09 17:33:00,61.0,53.0,29.93,NNE,21,10.0,21.0,76,0.00,,,1.02,,2013-05-09 22:33:00,
2013-05-09 17:41:00,59.0,51.0,29.94,ENE,71,0.0,0.0,76,0.02,,,1.04,,2013-05-09 22:41:00,
2013-05-09 17:42:00,59.0,51.0,29.94,NNE,14,3.0,0.0,76,0.00,,,1.02,,2013-05-09 22:42:00,
2013-05-09 17:52:00,59.0,51.0,29.94,NNE,14,3.0,0.0,76,0.00,,,1.02,,2013-05-09 22:52:00,
2013-05-09 18:02:00,59.0,51.0,29.94,ENE,71,0.0,0.0,76,0.02,,,1.04,,2013-05-09 23:02:00,
2013-05-09 18:12:00,59.0,51.0,29.94,ENE,71,0.0,0.0,76,0.02,,,1.04,,2013-05-09 23:12:00,
2013-05-09 18:21:00,59.0,51.0,29.94,ENE,71,0.0,0.0,76,0.02,,,1.04,,2013-05-09 23:21:00,
2013-05-09 18:32:00,59.0,51.0,29.94,ENE,71,0.0,0.0,76,0.02,,,1.04,,2013-05-09 23:32:00,
2013-05-09 19:11:00,59.0,-29.0,29.94,North,3,0.0,0.0,2,0.06,,,1.08,,2013-05-10 00:11:00,
2013-05-09 19:22:00,59.0,-29.0,29.94,North,3,0.0,0.0,2,0.06,,,1.08,,2013-05-10 00:22:00,
2013-05-09 19:32:00,59.0,-29.0,29.95,North,358,4.0,17.0,2,0.01,,,1.08,,2013-05-10 00:32:00,
2013-05-09 19:42:00,59.0,-29.0,29.96,NNW,335,0.0,0.0,2,0.00,,,1.08,,2013-05-10 00:42:00,
2013-05-09 19:52:00,59.0,-29.0,29.96,NNW,335,0.0,0.0,2,0.00,,,1.08,,2013-05-10 00:52:00,
2013-05-09 20:01:00,59.0,-29.0,29.96,North,0,1.0,0.0,2,0.00,,,1.08,,2013-05-10 01:01:00,
2013-05-09 20:11:00,59.0,-29.0,29.96,North,0,0.0,0.0,2,0.00,,,1.08,,2013-05-10 01:11:00,
2013-05-09 20:21:00,59.0,-29.0,29.96,North,0,0.0,0.0,2,0.00,,,1.08,,2013-05-10 01:21:00,
2013-05-09 20:32:00,58.0,-30.0,29.96,North,355,1.0,21.0,2,0.00,,,1.08,,2013-05-10 01:32:00,
2013-05-09 20:42:00,58.0,-30.0,29.97,East,86,1.0,0.0,2,0.00,,,1.08,,2013-05-10 01:42:00,
2013-05-09 20:52:00,58.0,-30.0,29.97,East,86,1.0,0.0,2,0.00,,,1.08,,2013-05-10 01:52:00,
2013-05-09 21:01:00,58.0,-30.0,29.97,North,1,0.0,11.0,2,0.00,,,1.08,,2013-05-10 02:01:00,
2013-05-09 21:11:00,57.0,-31.0,29.97,ENE,58,0.0,0.0,2,0.00,,,1.08,,2013-05-10 02:11:00,
2013-05-09 21:21:00,57.0,-31.0,29.97,ENE,58,0.0,0.0,2,0.00,,,1.08,,2013-05-10 02:21:00,
2013-05-09 21:31:00,57.0,-31.0,29.98,NNW,344,0.0,0.0,2,0.00,,,1.08,,2013-05-10 02:31:00,
2013-05-09 21:42:00,57.0,-31.0,29.98,North,3,0.0,0.0,2,0.00,,,1.08,,2013-05-10 02:42:00,
2013-05-09 21:52:00,57.0,-31.0,29.98,North,3,0.0,0.0,2,0.00,,,1.08,,2013-05-10 02:52:00,
2013-05-09 22:01:00,57.0,-31.0,29.98,North,3,0.0,0.0,2,0.00,,,1.08,,2013-05-10 03:01:00,
2013-05-09 22:11:00,57.0,-31.0,29.99,North,349,12.0,18.0,2,0.00,,,1.08,,2013-05-10 03:11:00,
2013-05-09 22:21:00,57.0,-31.0,29.99,North,349,12.0,18.0,2,0.00,,,1.08,,2013-05-10 03:21:00,
2013-05-09 22:33:00,58.0,-30.0,30.00,North,358,12.0,16.0,2,0.00,,,1.08,,2013-05-10 03:33:00,
2013-05-09 22:43:00,58.0,-30.0,29.99,North,0,10.0,15.0,2,0.00,,,1.08,,2013-05-10 03:43:00,
2013-05-09 22:52:00,58.0,-30.0,29.99,North,0,10.0,15.0,2,0.00,,,1.08,,2013-05-10 03:52:00,
2013-05-09 23:03:00,58.0,-30.0,30.00,North,6,12.0,15.0,2,0.00,,,1.08,,2013-05-10 04:03:00,
2013-05-09 23:12:00,58.0,-30.0,30.00,North,352,11.0,14.0,2,0.00,,,1.08,,2013-05-10 04:12:00,
2013-05-09 23:23:00,58.0,-30.0,30.00,North,352,11.0,14.0,2,0.00,,,1.08,,2013-05-10 04:23:00,
2013-05-09 23:33:00,57.0,-31.0,30.00,North,1,11.0,15.0,2,0.00,,,1.07,,2013-05-10 04:33:00,
2013-05-09 23:42:00,57.0,-31.0,30.00,North,358,11.0,12.0,2,0.00,,,1.07,,2013-05-10 04:42:00,
2013-05-09 23:52:00,57.0,-31.0,30.00,North,358,11.0,12.0,2,0.00,,,1.07,,2013-05-10 04:52:00,